North Springfield, VT (05150)

7:23 AM EST on February 01, 2015 (GMT -0500)
Gassetts / North Springfield | Change Station
CLOSE
Current Station
Personal Weather Station
Location: Chester, VT
Elevation: 594 ft
Nearby Weather Stations
Active Advisory: Winter Storm Warning

Elev 594 ft 43.34 °N, 72.55 °W | Updated 4 seconds ago

Scattered Clouds
Scattered Clouds
-5.3 °F
Feels Like -5 °F
N
1.6
Wind Variable Wind from South
Gusts 2.2 mph

Today
High -- | Low -- °F
--% Chance of Precip.
Yesterday
High -- | Low -- °F
Precip. -- in
7:06 AM 5:01 PM
Waxing Gibbous, 94% visible
Pressure 30.15 in
Visibility 10.0 miles
Clouds Scattered Clouds 2500 ft
Windchill -5 °F
Dew Point -16 °F
Humidity 59%
Rainfall 0.00 in
Snow Depth Not available.
UV 0 out of 12
Pollen .10 out of 12
Air Quality Not available.
Flu Activity Not available.
METAR KVSF 011154Z AUTO 00000KT 10SM SCT025 M18/M21 A3010 RMK AO2 SLP208 T11831211 11122 21183 53012 TSNO

More Conditions Fewer Conditions

Pressure 30.15 in
Visibility 10.0 miles
Clouds Scattered Clouds 2500 ft
Windchill -5 °F
Dew Point -16 °F
Humidity 59%
Rainfall 0.00 in
Snow Depth Not available.
UV 0 out of 12
Pollen .10 out of 12
Air Quality Not available.
Flu Activity Not available.
METAR KVSF 011154Z AUTO 00000KT 10SM SCT025 M18/M21 A3010 RMK AO2 SLP208 T11831211 11122 21183 53012 TSNO

More Conditions Fewer Conditions

10-Day Weather Forecast

Almanac

Astronomy

Feb. 01, 2015 Rise Set
Actual Time
Civil Twilight
Nautical Twilight
Astronomical Twilight
Moon
Length of Visible Light
Length of Day
Tomorrow will be .
, % of the Moon is Illuminated

Today's Extremes

State Highs State Lows

Community

WunderPhotos

Upload Photos

1,792,351 photos uploaded!

WunderBlogs® & News

Nearby

Air Quality

  Air Quality AQ Index Pollutant
Not available.

Snow Depth

Station Depth Elevation

Earthquake Activity

City Distance Mag. Time & Date
Minimum magnitude displayed is 2.5.

Coastal Water Temperatures

Place Temperature

Nearby Weather Stations